createdAt,value
2022-10-19T00:01:07.017Z,2.15
2022-10-19T00:03:34.238Z,1.90
2022-10-19T00:06:01.184Z,2.20
2022-10-19T00:08:28.030Z,2.28
2022-10-19T00:10:54.811Z,2.00
2022-10-19T00:13:21.601Z,2.17
2022-10-19T00:15:48.399Z,1.95
2022-10-19T00:18:15.170Z,2.65
2022-10-19T00:20:41.915Z,2.10
2022-10-19T00:23:08.739Z,1.90
2022-10-19T00:25:36.953Z,2.75
2022-10-19T00:28:04.010Z,2.03
2022-10-19T00:30:30.844Z,2.25
2022-10-19T00:32:57.640Z,2.05
2022-10-19T00:35:24.417Z,2.30
2022-10-19T00:37:51.814Z,1.80
2022-10-19T00:40:18.630Z,2.35
2022-10-19T00:42:45.422Z,2.22
2022-10-19T00:45:16.744Z,1.77
2022-10-19T00:47:43.839Z,2.13
2022-10-19T00:50:10.817Z,2.50
2022-10-19T00:52:37.611Z,2.67
2022-10-19T00:55:04.707Z,2.17
2022-10-19T00:57:31.574Z,2.58
2022-10-19T00:59:59.040Z,2.05
2022-10-19T01:02:25.906Z,2.35
2022-10-19T01:04:52.901Z,2.05
2022-10-19T01:07:19.789Z,2.00
2022-10-19T01:09:46.581Z,2.30
2022-10-19T01:12:25.545Z,2.80
2022-10-19T01:14:58.999Z,2.30
2022-10-19T01:17:54.878Z,2.45
2022-10-19T01:20:42.703Z,2.03
2022-10-19T01:23:12.366Z,2.90
2022-10-19T01:25:49.922Z,2.30
2022-10-19T01:28:50.745Z,2.40
2022-10-19T01:31:41.552Z,2.13
2022-10-19T01:34:13.720Z,2.20
2022-10-19T01:37:01.679Z,2.17
2022-10-19T01:39:49.805Z,2.05
2022-10-19T01:42:19.902Z,2.13
2022-10-19T01:45:01.027Z,1.98
2022-10-19T01:47:47.865Z,2.10
2022-10-19T01:50:38.442Z,2.00
2022-10-19T01:53:06.008Z,2.15
2022-10-19T01:55:32.789Z,1.98
2022-10-19T01:58:08.294Z,2.08
2022-10-19T02:00:37.567Z,2.20
2022-10-19T02:03:04.508Z,2.13
2022-10-19T02:05:33.277Z,2.20
2022-10-19T02:08:02.947Z,2.22
2022-10-19T02:10:29.883Z,2.25
2022-10-19T02:12:56.661Z,2.20
2022-10-19T02:15:24.893Z,2.40
2022-10-19T02:17:52.904Z,1.98
2022-10-19T02:20:19.698Z,2.10
2022-10-19T02:22:46.446Z,2.15
2022-10-19T02:25:13.229Z,2.03
2022-10-19T02:27:42.115Z,2.25
2022-10-19T02:30:13.254Z,2.30
2022-10-19T02:32:40.283Z,2.00
2022-10-19T02:35:07.326Z,2.20
2022-10-19T02:37:34.154Z,2.38
2022-10-19T02:40:01.197Z,2.20
2022-10-19T02:42:29.001Z,1.98
2022-10-19T02:45:11.108Z,2.20
2022-10-19T02:47:42.746Z,1.80
2022-10-19T02:50:09.966Z,2.33
2022-10-19T02:52:37.830Z,2.00
2022-10-19T02:55:05.655Z,2.55
2022-10-19T02:57:32.737Z,2.85
2022-10-19T02:59:59.960Z,2.30
2022-10-19T03:02:26.802Z,1.95
2022-10-19T03:04:53.561Z,2.50
2022-10-19T03:07:21.882Z,2.40
2022-10-19T03:09:48.808Z,2.00
2022-10-19T03:12:15.822Z,2.20
2022-10-19T03:14:42.672Z,2.10
2022-10-19T03:17:09.526Z,2.38
2022-10-19T03:19:36.412Z,2.38
2022-10-19T03:22:03.282Z,2.08
2022-10-19T03:24:30.613Z,2.10
2022-10-19T03:26:57.424Z,2.10
2022-10-19T03:29:24.194Z,2.58
2022-10-19T03:31:50.968Z,2.17
2022-10-19T03:34:17.707Z,3.03
2022-10-19T03:36:44.470Z,2.42
2022-10-19T03:39:12.426Z,2.78
2022-10-19T03:41:39.560Z,2.90
2022-10-19T03:44:07.010Z,2.70
2022-10-19T03:46:33.978Z,2.72
2022-10-19T03:49:00.794Z,2.13
2022-10-19T03:51:28.559Z,2.67
2022-10-19T03:54:03.365Z,2.40
2022-10-19T03:56:30.738Z,2.25
2022-10-19T03:58:58.481Z,2.70
2022-10-19T04:01:27.060Z,2.50
2022-10-19T04:03:58.230Z,2.85
2022-10-19T04:06:29.478Z,2.67
2022-10-19T04:08:56.352Z,2.60
2022-10-19T04:11:24.785Z,2.53
2022-10-19T04:13:52.402Z,3.35
2022-10-19T04:16:19.747Z,2.90
2022-10-19T04:18:46.779Z,2.55
2022-10-19T04:21:30.835Z,2.45
2022-10-19T04:24:02.493Z,2.72
2022-10-19T04:26:29.339Z,2.75
2022-10-19T04:28:59.578Z,2.50
2022-10-19T04:31:27.190Z,2.88
2022-10-19T04:33:54.185Z,2.75
2022-10-19T04:36:21.042Z,2.63
2022-10-19T04:38:47.851Z,2.67
2022-10-19T04:41:16.035Z,3.42
2022-10-19T04:43:45.209Z,3.45
2022-10-19T04:46:14.000Z,2.80
2022-10-19T04:48:41.026Z,2.67
2022-10-19T04:51:08.003Z,3.20
2022-10-19T04:53:35.105Z,2.60
2022-10-19T04:56:04.886Z,3.10
2022-10-19T04:58:31.687Z,3.83
2022-10-19T05:01:00.901Z,3.45
2022-10-19T05:03:27.682Z,3.40
2022-10-19T05:05:54.559Z,2.90
2022-10-19T05:08:21.396Z,3.60
2022-10-19T05:10:48.193Z,3.40
2022-10-19T05:13:15.090Z,3.85
2022-10-19T05:15:41.961Z,3.30
2022-10-19T05:18:08.784Z,4.25
2022-10-19T05:20:35.659Z,3.53
2022-10-19T05:23:06.289Z,4.15
2022-10-19T05:25:34.339Z,3.80
2022-10-19T05:28:01.186Z,3.72
2022-10-19T05:30:27.982Z,3.40
2022-10-19T05:32:54.799Z,4.65
2022-10-19T05:35:22.708Z,3.65
2022-10-19T05:37:55.279Z,4.05
2022-10-19T05:42:48.883Z,4.07
2022-10-19T05:45:15.867Z,3.97
2022-10-19T05:47:42.659Z,4.32
2022-10-19T05:50:09.642Z,4.05
2022-10-19T05:52:36.502Z,4.15
2022-10-19T05:55:03.442Z,4.78
2022-10-19T05:57:32.572Z,4.78
2022-10-19T05:59:59.644Z,4.85
2022-10-19T06:02:26.487Z,5.07
2022-10-19T06:04:53.342Z,4.15
2022-10-19T06:07:20.191Z,4.88
2022-10-19T06:09:47.828Z,4.82
2022-10-19T06:12:16.213Z,4.85
2022-10-19T06:14:43.482Z,4.47
2022-10-19T06:17:10.783Z,4.40
2022-10-19T06:19:37.810Z,4.75
2022-10-19T06:22:04.611Z,4.80
2022-10-19T06:24:31.559Z,4.50
2022-10-19T06:26:58.397Z,5.03
2022-10-19T06:29:25.396Z,5.03
2022-10-19T06:31:54.246Z,5.22
2022-10-19T06:34:21.033Z,5.00
2022-10-19T06:36:47.870Z,4.65
2022-10-19T06:39:14.714Z,5.32
2022-10-19T06:41:41.597Z,5.10
2022-10-19T06:44:20.337Z,5.43
2022-10-19T06:46:47.257Z,5.57
2022-10-19T06:49:14.350Z,4.90
2022-10-19T06:51:41.173Z,5.50
2022-10-19T06:54:08.053Z,6.40
2022-10-19T06:56:35.041Z,6.07
2022-10-19T06:59:01.949Z,5.10
2022-10-19T07:01:28.949Z,5.53
2022-10-19T07:03:55.958Z,5.43
2022-10-19T07:06:22.936Z,5.07
2022-10-19T07:08:49.841Z,5.55
2022-10-19T07:11:17.994Z,4.70
2022-10-19T07:13:44.914Z,4.78
2022-10-19T07:16:17.649Z,5.13
2022-10-19T07:18:48.104Z,4.07
2022-10-19T07:21:15.595Z,4.80
2022-10-19T07:23:43.267Z,5.00
2022-10-19T07:26:26.631Z,4.38
2022-10-19T07:28:55.058Z,4.07
2022-10-19T07:31:23.126Z,4.10
2022-10-19T07:33:53.987Z,4.65
2022-10-19T07:36:20.992Z,4.03
2022-10-19T07:38:47.864Z,4.00
2022-10-19T07:41:16.170Z,3.65
2022-10-19T07:43:44.182Z,4.20
2022-10-19T07:46:15.307Z,3.75
2022-10-19T07:48:42.454Z,3.90
2022-10-19T07:51:09.792Z,3.88
2022-10-19T07:53:36.733Z,3.67
2022-10-19T07:56:04.687Z,3.80
2022-10-19T07:58:31.731Z,3.67
2022-10-19T08:01:07.615Z,3.95
2022-10-19T08:06:21.566Z,3.70
2022-10-19T08:08:48.666Z,4.68
2022-10-19T08:11:26.293Z,3.85
2022-10-19T08:13:53.337Z,4.63
2022-10-19T08:16:25.084Z,4.10
2022-10-19T08:18:52.648Z,4.13
2022-10-19T08:21:19.594Z,4.85
2022-10-19T08:23:46.414Z,4.30
2022-10-19T08:26:13.278Z,3.92
2022-10-19T08:28:40.156Z,3.95
2022-10-19T08:31:17.686Z,4.10
2022-10-19T08:33:44.685Z,4.78
2022-10-19T08:36:12.429Z,4.20
2022-10-19T08:38:39.492Z,4.18
2022-10-19T08:41:19.604Z,4.43
2022-10-19T08:44:15.444Z,4.78
2022-10-19T08:46:42.232Z,4.47
2022-10-19T08:49:11.404Z,5.43
2022-10-19T08:51:39.044Z,4.70
2022-10-19T08:54:12.191Z,4.55
2022-10-19T08:56:50.911Z,4.50
2022-10-19T08:59:37.340Z,4.95
2022-10-19T09:02:40.907Z,5.13
2022-10-19T09:05:27.686Z,5.10
2022-10-19T09:07:54.639Z,4.47
2022-10-19T09:10:28.563Z,4.75
2022-10-19T09:13:10.087Z,4.53
2022-10-19T09:15:50.309Z,4.30
2022-10-19T09:18:21.588Z,4.75
2022-10-19T09:20:49.613Z,4.90
2022-10-19T09:23:20.681Z,4.47
2022-10-19T09:25:48.927Z,5.13
2022-10-19T09:28:49.749Z,4.43
2022-10-19T09:31:32.897Z,4.50
2022-10-19T09:34:03.089Z,4.35
2022-10-19T09:36:50.981Z,4.07
2022-10-19T09:39:18.041Z,5.18
2022-10-19T09:41:51.209Z,4.07
2022-10-19T09:44:18.439Z,4.20
2022-10-19T09:47:16.377Z,4.35
2022-10-19T09:49:44.906Z,4.07
2022-10-19T09:52:35.938Z,4.57
2022-10-19T09:55:07.874Z,5.13
2022-10-19T09:57:41.799Z,4.55
2022-10-19T10:00:21.329Z,5.10
2022-10-19T10:02:55.206Z,4.68
2022-10-19T10:05:38.973Z,4.57
2022-10-19T10:08:12.997Z,4.82
2022-10-19T10:10:42.958Z,5.43
2022-10-19T10:13:20.093Z,4.97
2022-10-19T10:15:57.878Z,5.55
2022-10-19T10:18:25.189Z,5.55
2022-10-19T10:21:03.880Z,4.25
2022-10-19T10:23:36.078Z,4.35
2022-10-19T10:26:03.416Z,5.43
2022-10-19T10:28:30.562Z,4.40
2022-10-19T10:31:05.286Z,5.40
2022-10-19T10:33:50.908Z,4.35
2022-10-19T10:36:18.235Z,5.07
2022-10-19T10:38:50.949Z,4.88
2022-10-19T10:41:20.348Z,5.20
2022-10-19T10:44:06.566Z,5.05
2022-10-19T10:46:40.611Z,5.15
2022-10-19T10:49:08.263Z,4.80
2022-10-19T10:51:39.455Z,5.35
2022-10-19T10:54:20.516Z,4.55
2022-10-19T10:57:06.575Z,4.65
2022-10-19T10:59:49.716Z,4.28
2022-10-19T11:02:34.827Z,5.07
2022-10-19T11:05:26.627Z,4.80
2022-10-19T11:07:56.674Z,4.35
2022-10-19T11:10:39.408Z,4.53
2022-10-19T11:13:31.927Z,4.43
2022-10-19T11:16:13.763Z,4.75
2022-10-19T11:18:49.061Z,4.50
2022-10-19T11:21:20.417Z,5.82
2022-10-19T11:23:55.496Z,5.17
2022-10-19T11:27:04.962Z,4.38
2022-10-19T11:30:04.565Z,4.95
2022-10-19T11:32:57.864Z,4.50
2022-10-19T11:35:53.036Z,5.05
2022-10-19T11:38:58.901Z,4.57
2022-10-19T11:41:53.230Z,4.35
2022-10-19T11:44:20.115Z,4.80
2022-10-19T11:46:58.753Z,4.18
2022-10-19T11:49:36.028Z,4.85
2022-10-19T11:52:21.984Z,4.45
2022-10-19T11:55:43.176Z,4.60
2022-10-19T11:58:19.420Z,4.60
2022-10-19T12:00:56.500Z,4.47
2022-10-19T12:03:30.845Z,4.20
2022-10-19T12:06:11.014Z,4.40
2022-10-19T12:09:15.629Z,3.70
2022-10-19T12:11:51.695Z,4.80
2022-10-19T12:14:21.067Z,4.05
2022-10-19T12:16:50.656Z,4.57
2022-10-19T12:19:29.581Z,4.20
2022-10-19T12:22:00.103Z,4.72
2022-10-19T12:24:28.489Z,4.03
2022-10-19T12:26:55.316Z,4.90
2022-10-19T12:29:33.516Z,4.45
2022-10-19T12:32:00.795Z,5.32
2022-10-19T12:34:38.078Z,4.13
2022-10-19T12:37:13.589Z,4.97
2022-10-19T12:40:08.577Z,4.28
2022-10-19T12:42:38.270Z,4.45
2022-10-19T12:45:30.243Z,4.60
2022-10-19T12:48:12.295Z,4.10
2022-10-19T12:51:06.262Z,4.30
2022-10-19T12:53:36.124Z,4.63
2022-10-19T12:56:04.452Z,4.43
2022-10-19T12:58:47.578Z,4.40
2022-10-19T13:01:26.909Z,4.85
2022-10-19T13:04:11.266Z,4.65
2022-10-19T13:06:45.894Z,5.03
2022-10-19T13:09:32.806Z,4.55
2022-10-19T13:12:19.398Z,4.68
2022-10-19T13:14:55.752Z,4.72
2022-10-19T13:17:37.447Z,5.00
2022-10-19T13:20:16.519Z,4.32
2022-10-19T13:22:52.768Z,4.60
2022-10-19T13:25:21.566Z,4.10
2022-10-19T13:27:49.668Z,4.85
2022-10-19T13:30:38.283Z,5.00
2022-10-19T13:33:29.644Z,3.92
2022-10-19T13:35:59.593Z,4.43
2022-10-19T13:38:47.807Z,4.88
2022-10-19T13:41:18.241Z,4.65
2022-10-19T13:44:10.290Z,4.07
2022-10-19T13:46:53.770Z,4.10
2022-10-19T13:49:35.628Z,4.50
2022-10-19T13:52:23.918Z,5.15
2022-10-19T13:54:53.518Z,4.32
2022-10-19T13:57:27.872Z,5.07
2022-10-19T14:00:11.672Z,4.22
2022-10-19T14:03:11.586Z,4.43
2022-10-19T14:05:57.857Z,4.40
2022-10-19T14:08:43.225Z,4.43
2022-10-19T14:11:15.118Z,4.63
2022-10-19T14:13:42.327Z,4.93
2022-10-19T14:16:20.474Z,4.70
2022-10-19T14:18:56.604Z,4.93
2022-10-19T14:21:31.008Z,4.97
2022-10-19T14:23:57.871Z,4.95
2022-10-19T14:26:26.046Z,4.60
2022-10-19T14:28:54.293Z,4.85
2022-10-19T14:31:23.272Z,5.15
2022-10-19T14:33:54.708Z,5.10
2022-10-19T14:36:22.920Z,5.32
2022-10-19T14:38:50.468Z,5.90
2022-10-19T14:41:37.789Z,5.50
2022-10-19T14:44:36.340Z,5.10
2022-10-19T14:47:09.946Z,5.38
2022-10-19T14:49:36.821Z,5.20
2022-10-19T14:52:03.612Z,5.82
2022-10-19T14:54:32.251Z,6.25
2022-10-19T14:57:00.572Z,5.50
2022-10-19T14:59:35.284Z,5.97
2022-10-19T15:02:05.446Z,5.57
2022-10-19T15:04:34.497Z,6.07
2022-10-19T15:07:02.083Z,6.25
2022-10-19T15:09:48.030Z,7.20
2022-10-19T15:12:20.136Z,6.10
2022-10-19T15:14:47.028Z,7.50
2022-10-19T15:17:36.050Z,7.00
2022-10-19T15:20:04.648Z,6.40
2022-10-19T15:22:31.905Z,6.45
2022-10-19T15:25:03.149Z,6.47
2022-10-19T15:27:39.783Z,6.78
2022-10-19T15:30:19.030Z,6.88
2022-10-19T15:32:49.967Z,6.82
2022-10-19T15:35:26.279Z,7.30
2022-10-19T15:38:03.533Z,6.90
2022-10-19T15:40:33.227Z,6.60
2022-10-19T15:43:00.176Z,6.72
2022-10-19T15:45:37.394Z,7.38
2022-10-19T15:48:24.095Z,6.22
2022-10-19T15:50:51.968Z,6.07
2022-10-19T15:53:19.268Z,6.72
2022-10-19T15:55:46.195Z,7.13
2022-10-19T15:58:13.212Z,7.25
2022-10-19T16:00:40.578Z,7.18
2022-10-19T16:03:07.519Z,6.90
2022-10-19T16:05:35.510Z,7.03
2022-10-19T16:08:02.394Z,7.22
2022-10-19T16:10:29.262Z,8.45
2022-10-19T16:12:56.198Z,6.57
2022-10-19T16:15:24.016Z,6.50
2022-10-19T16:17:57.316Z,6.63
2022-10-19T16:20:24.442Z,6.18
2022-10-19T16:22:51.276Z,5.97
2022-10-19T16:25:18.194Z,6.40
2022-10-19T16:27:45.047Z,6.60
2022-10-19T16:30:12.306Z,6.65
2022-10-19T16:35:12.162Z,5.78
2022-10-19T16:37:39.001Z,6.18
2022-10-19T16:40:06.556Z,5.90
2022-10-19T16:42:34.817Z,6.25
2022-10-19T16:45:01.983Z,6.30
2022-10-19T16:47:28.826Z,7.07
2022-10-19T16:50:00.071Z,6.18
2022-10-19T16:52:31.854Z,6.90
2022-10-19T16:54:59.758Z,6.15
2022-10-19T16:57:26.645Z,6.13
2022-10-19T17:02:25.766Z,6.63
2022-10-19T17:04:52.640Z,7.00
2022-10-19T17:07:19.546Z,7.18
2022-10-19T17:09:47.837Z,7.15
2022-10-19T17:12:16.545Z,6.80
2022-10-19T17:14:43.442Z,6.95
2022-10-19T17:17:10.436Z,6.65
2022-10-19T17:19:37.514Z,6.60
2022-10-19T17:22:05.435Z,7.03
2022-10-19T17:24:32.367Z,7.57
2022-10-19T17:27:00.582Z,6.70
2022-10-19T17:29:27.466Z,7.00
2022-10-19T17:31:54.355Z,7.72
2022-10-19T17:34:21.281Z,6.95
2022-10-19T17:36:48.437Z,7.40
2022-10-19T17:39:22.128Z,6.93
2022-10-19T17:41:50.959Z,7.72
2022-10-19T17:44:18.583Z,7.38
2022-10-19T17:46:45.544Z,6.78
2022-10-19T17:49:12.679Z,7.25
2022-10-19T17:51:39.620Z,8.25
2022-10-19T17:54:08.072Z,7.82
2022-10-19T17:56:35.672Z,7.40
2022-10-19T17:59:03.155Z,7.88
2022-10-19T18:01:30.477Z,8.23
2022-10-19T18:03:57.434Z,7.75
2022-10-19T18:06:31.472Z,8.52
2022-10-19T18:08:59.506Z,9.35
2022-10-19T18:11:55.381Z,10.30
2022-10-19T18:14:22.198Z,9.27
2022-10-19T18:16:49.051Z,9.90
2022-10-19T18:19:16.474Z,10.60
2022-10-19T18:21:44.549Z,9.55
2022-10-19T18:24:15.290Z,10.55
2022-10-19T18:26:42.762Z,11.10
2022-10-19T18:29:11.818Z,9.95
2022-10-19T18:31:38.966Z,9.70
2022-10-19T18:34:06.746Z,10.90
2022-10-19T18:36:33.684Z,9.52
2022-10-19T18:39:02.105Z,8.75
2022-10-19T18:41:31.689Z,9.63
2022-10-19T18:44:01.895Z,9.38
2022-10-19T18:46:28.951Z,10.25
2022-10-19T18:48:55.717Z,10.15
2022-10-19T18:51:22.869Z,9.32
2022-10-19T18:53:49.714Z,9.65
2022-10-19T18:56:18.007Z,10.90
2022-10-19T18:58:45.102Z,10.00
2022-10-19T19:01:16.167Z,9.82
2022-10-19T19:03:44.553Z,10.57
2022-10-19T19:06:25.120Z,10.20
2022-10-19T19:08:54.626Z,10.65
2022-10-19T19:11:22.812Z,10.40
2022-10-19T19:13:57.326Z,11.85
2022-10-19T19:16:24.357Z,12.23
2022-10-19T19:18:51.167Z,10.95
2022-10-19T19:21:22.864Z,11.13
2022-10-19T19:23:50.064Z,11.43
2022-10-19T19:26:16.953Z,11.13
2022-10-19T19:28:46.277Z,12.32
2022-10-19T19:31:16.067Z,11.40
2022-10-19T19:33:43.878Z,11.05
2022-10-19T19:36:11.751Z,10.70
2022-10-19T19:38:38.627Z,10.63
2022-10-19T19:41:09.532Z,11.52
2022-10-19T19:43:39.485Z,11.80
2022-10-19T19:46:14.799Z,11.85
2022-10-19T19:48:42.422Z,10.73
2022-10-19T19:51:13.147Z,11.13
2022-10-19T19:53:40.115Z,11.05
2022-10-19T19:56:07.626Z,10.45
2022-10-19T19:58:34.644Z,11.07
2022-10-19T20:01:12.464Z,12.82
2022-10-19T20:03:41.306Z,11.05
2022-10-19T20:06:08.383Z,11.02
2022-10-19T20:08:36.787Z,11.45
2022-10-19T20:11:05.007Z,11.63
2022-10-19T20:13:31.898Z,11.32
2022-10-19T20:16:02.388Z,12.20
2022-10-19T20:18:29.723Z,11.68
2022-10-19T20:21:01.657Z,11.85
2022-10-19T20:23:29.135Z,12.38
2022-10-19T20:25:56.424Z,11.88
2022-10-19T20:28:24.702Z,11.90
2022-10-19T20:31:07.628Z,13.68
2022-10-19T20:33:35.353Z,11.95
2022-10-19T20:36:06.537Z,13.25
2022-10-19T20:38:34.191Z,13.13
2022-10-19T20:41:06.949Z,12.77
2022-10-19T20:43:37.508Z,12.65
2022-10-19T20:46:04.971Z,11.57
2022-10-19T20:48:31.873Z,12.55
2022-10-19T20:51:15.876Z,12.02
2022-10-19T20:53:46.157Z,11.65
2022-10-19T20:56:14.020Z,12.65
2022-10-19T20:58:43.205Z,12.23
2022-10-19T21:01:12.691Z,12.65
2022-10-19T21:03:39.994Z,11.73
2022-10-19T21:06:07.666Z,12.63
2022-10-19T21:08:37.894Z,13.43
2022-10-19T21:11:41.455Z,12.75
2022-10-19T21:14:13.177Z,12.82
2022-10-19T21:16:40.128Z,12.45
2022-10-19T21:19:14.957Z,12.85
2022-10-19T21:21:43.850Z,12.57
2022-10-19T21:24:12.818Z,12.70
2022-10-19T21:26:39.830Z,13.98
2022-10-19T21:29:09.475Z,13.93
2022-10-19T21:31:37.982Z,13.40
2022-10-19T21:34:09.098Z,13.63
2022-10-19T21:36:35.963Z,13.57
2022-10-19T21:39:02.990Z,13.63
2022-10-19T21:41:30.926Z,13.20
2022-10-19T21:43:58.097Z,13.18
2022-10-19T21:46:28.933Z,13.98
2022-10-19T21:48:55.779Z,13.32
2022-10-19T21:51:44.297Z,13.80
2022-10-19T21:54:13.031Z,14.38
2022-10-19T21:56:39.904Z,14.52
2022-10-19T21:59:06.827Z,13.45
2022-10-19T22:01:38.510Z,15.00
2022-10-19T22:04:12.414Z,14.15
2022-10-19T22:06:39.358Z,14.27
2022-10-19T22:09:07.067Z,14.85
2022-10-19T22:11:34.025Z,14.45
2022-10-19T22:14:01.807Z,13.88
2022-10-19T22:16:28.918Z,16.58
2022-10-19T22:18:56.063Z,14.00
2022-10-19T22:21:27.955Z,14.38
2022-10-19T22:23:56.671Z,14.40
2022-10-19T22:26:28.091Z,14.77
2022-10-19T22:28:56.344Z,15.57
2022-10-19T22:31:23.524Z,15.45
2022-10-19T22:33:50.359Z,15.50
2022-10-19T22:36:17.254Z,15.43
2022-10-19T22:38:44.058Z,15.98
2022-10-19T22:41:10.903Z,14.50
2022-10-19T22:43:37.737Z,15.80
2022-10-19T22:46:04.608Z,14.52
2022-10-19T22:48:31.428Z,14.75
2022-10-19T22:50:58.166Z,15.70
2022-10-19T22:53:25.067Z,14.55
2022-10-19T22:55:51.957Z,14.90
2022-10-19T22:58:18.879Z,15.15
2022-10-19T23:00:45.822Z,14.95
2022-10-19T23:03:12.646Z,14.48
2022-10-19T23:05:39.451Z,13.27
2022-10-19T23:08:06.265Z,14.05
2022-10-19T23:10:33.334Z,13.38
2022-10-19T23:13:00.359Z,14.38
2022-10-19T23:15:27.169Z,14.00
2022-10-19T23:17:54.065Z,14.85
2022-10-19T23:20:20.990Z,14.57
2022-10-19T23:22:47.882Z,14.82
2022-10-19T23:25:14.776Z,14.70
2022-10-19T23:27:41.627Z,14.52
2022-10-19T23:30:08.831Z,15.00
2022-10-19T23:32:35.660Z,15.23
2022-10-19T23:35:02.487Z,16.10
2022-10-19T23:37:29.346Z,14.77
2022-10-19T23:39:56.151Z,15.13
2022-10-19T23:42:22.988Z,15.85
2022-10-19T23:44:49.801Z,15.75
2022-10-19T23:47:16.629Z,15.55
2022-10-19T23:49:44.661Z,14.98
2022-10-19T23:52:11.462Z,15.48
2022-10-19T23:54:38.281Z,15.30
2022-10-19T23:57:05.101Z,15.05
2022-10-19T23:59:32.001Z,15.35
